Time;durP1;ratioP1;P1;durP2;ratioP2;P2;SDS_P1;SDS_P2;PMS_P1;PMS_P2;Temp;Humidity;BMP_temperature;BMP_pressure;BME280_temperature;BME280_humidity;BME280_pressure;Samples;Min_cycle;Max_cycle;Signal;HPM_P1;HPM_P2
2022/12/23 00:01:16;;;;;;;4.97;3.30;;;8.50;99.90;;;9.14;100.00;97030.00;5086184;28;20540;-81
2022/12/23 00:03:46;;;;;;;3.20;2.73;;;8.50;99.90;;;9.13;100.00;97031.00;5086920;28;20503;-81
2022/12/23 00:06:18;;;;;;;8.50;3.57;;;8.50;99.90;;;9.14;100.00;97034.41;5086730;28;20948;-80
2022/12/23 00:08:48;;;;;;;7.10;3.00;;;8.50;99.90;;;9.12;100.00;97037.25;5092830;28;20475;-81
2022/12/23 00:15:38;;;;;;;4.93;3.50;;;8.60;99.90;;;9.14;100.00;97047.44;5092962;28;20543;-81
2022/12/23 00:18:07;;;;;;;8.23;3.60;;;8.50;99.90;;;9.13;100.00;97044.03;5086901;28;20472;-81
2022/12/23 00:20:37;;;;;;;6.97;3.10;;;8.50;99.90;;;9.12;100.00;97052.88;5092903;28;20468;-80
2022/12/23 00:23:06;;;;;;;10.50;3.17;;;8.50;99.90;;;9.14;100.00;97066.50;5091452;28;21147;-81
2022/12/23 00:25:43;;;;;;;9.93;4.70;;;8.50;99.90;;;9.13;100.00;97069.34;5093185;28;20960;-80
2022/12/23 00:28:17;;;;;;;8.43;2.73;;;8.60;99.90;;;9.15;100.00;97078.56;5090690;28;20455;-80
2022/12/23 00:30:49;;;;;;;3.20;2.90;;;8.50;99.90;;;9.15;100.00;97072.53;5090521;28;20549;-81
2022/12/23 00:33:22;;;;;;;5.50;3.37;;;8.60;99.90;;;9.17;100.00;97080.94;5092488;28;20546;-80
2022/12/23 00:35:53;;;;;;;6.90;3.67;;;8.60;99.90;;;9.17;100.00;97073.13;5093155;28;20456;-80
2022/12/23 00:43:58;;;;;;;7.27;2.73;;;8.50;99.90;;;9.15;100.00;97089.00;5049764;28;20578;-81
2022/12/23 00:46:28;;;;;;;3.80;3.23;;;8.50;99.90;;;9.16;100.00;97085.38;5091846;28;20559;-80
2022/12/23 00:51:44;;;;;;;5.80;3.63;;;8.60;99.90;;;9.13;100.00;97096.19;5095888;28;20517;-80
2022/12/23 00:54:16;;;;;;;7.37;3.37;;;8.50;99.90;;;9.13;100.00;97095.41;5095412;28;21094;-80
2022/12/23 00:56:48;;;;;;;7.30;3.63;;;8.50;99.90;;;9.14;100.00;97103.03;5092159;28;20990;-80
2022/12/23 00:59:17;;;;;;;6.63;3.77;;;8.60;99.90;;;9.15;100.00;97106.44;5096252;28;20475;-80
2022/12/23 01:07:23;;;;;;;7.13;4.20;;;8.60;99.90;;;9.13;100.00;97129.31;5091208;28;20469;-81
2022/12/23 01:09:52;;;;;;;7.03;3.83;;;8.50;99.90;;;9.13;100.00;97127.50;5088210;28;20499;-81
2022/12/23 01:12:23;;;;;;;17.30;3.97;;;8.60;99.90;;;9.12;100.00;97140.75;5090071;28;20550;-80
2022/12/23 01:14:53;;;;;;;13.03;4.13;;;8.50;99.90;;;9.14;100.00;97149.97;5083404;28;20503;-81
2022/12/23 01:17:22;;;;;;;7.53;3.23;;;8.60;99.90;;;9.11;100.00;97155.59;5088358;28;20521;-81
2022/12/23 01:19:53;;;;;;;5.67;3.93;;;8.50;99.90;;;9.14;100.00;97149.16;5087986;28;20506;-80
2022/12/23 01:22:21;;;;;;;4.97;4.00;;;8.60;99.90;;;9.15;100.00;97162.00;5092017;28;20483;-81
2022/12/23 01:24:52;;;;;;;12.37;3.90;;;8.60;99.90;;;9.12;100.00;97167.63;5094007;28;20489;-81
2022/12/23 01:27:24;;;;;;;9.93;4.20;;;8.60;99.90;;;9.15;100.00;97166.41;5093438;28;21274;-80
2022/12/23 01:29:54;;;;;;;9.03;4.23;;;8.70;99.90;;;9.12;100.00;97172.84;5090399;28;20452;-80
2022/12/23 01:32:24;;;;;;;6.50;3.70;;;8.70;99.90;;;9.15;100.00;97175.06;5085356;28;20466;-80
2022/12/23 01:34:54;;;;;;;4.23;2.63;;;8.60;99.90;;;9.18;100.00;97179.06;5094649;28;20498;-81
2022/12/23 01:37:23;;;;;;;6.43;2.23;;;8.80;99.90;;;9.20;100.00;97185.69;5093847;28;20462;-80
2022/12/23 01:39:54;;;;;;;5.03;2.00;;;8.70;99.90;;;9.22;100.00;97194.13;5095066;28;20545;-81
2022/12/23 01:42:43;;;;;;;2.00;1.50;;;8.70;99.90;;;9.23;100.00;97187.91;5088336;28;20460;-81
2022/12/23 01:45:34;;;;;;;2.37;2.00;;;8.70;99.90;;;9.25;100.00;97187.69;5092569;28;20463;-80
2022/12/23 01:48:08;;;;;;;1.93;1.70;;;8.70;99.90;;;9.25;100.00;97193.72;5092633;28;20505;-81
2022/12/23 01:50:44;;;;;;;3.40;1.63;;;8.70;99.90;;;9.26;100.00;97195.34;5091498;28;20946;-81
2022/12/23 01:53:21;;;;;;;1.83;1.37;;;8.70;99.90;;;9.25;100.00;97205.97;5089904;28;20451;-80
2022/12/23 01:55:58;;;;;;;4.43;1.90;;;8.70;99.90;;;9.24;100.00;97215.59;5096493;28;21475;-81
2022/12/23 01:58:35;;;;;;;3.57;1.50;;;8.70;99.90;;;9.26;100.00;97216.22;5092658;28;20463;-81
2022/12/23 02:03:55;;;;;;;7.20;1.60;;;8.70;99.90;;;9.30;100.00;97235.66;5088284;28;20499;-81
2022/12/23 02:09:23;;;;;;;3.00;1.20;;;8.90;99.90;;;9.35;100.00;97248.09;5086815;28;20547;-80
2022/12/23 02:12:37;;;;;;;3.33;1.07;;;8.80;99.90;;;9.39;100.00;97247.53;5092259;28;20473;-81
2022/12/23 02:18:57;;;;;;;5.13;1.03;;;9.00;99.90;;;9.41;100.00;97244.69;5091962;28;20473;-80
2022/12/23 02:21:47;;;;;;;2.93;1.37;;;8.90;99.90;;;9.40;100.00;97256.16;5090466;28;20454;-80
2022/12/23 02:25:03;;;;;;;1.53;1.10;;;8.90;99.90;;;9.40;100.00;97262.19;5090029;28;20498;-80
2022/12/23 02:27:40;;;;;;;1.87;1.10;;;8.90;99.90;;;9.40;100.00;97259.56;5092958;28;20462;-80
2022/12/23 02:30:40;;;;;;;1.07;0.70;;;8.90;99.90;;;9.41;100.00;97270.78;5091369;28;20519;-81
2022/12/23 02:33:29;;;;;;;4.93;1.07;;;8.90;99.90;;;9.42;100.00;97275.00;5089282;28;20478;-80
2022/12/23 02:36:17;;;;;;;1.10;1.00;;;8.90;99.90;;;9.43;100.00;97280.03;5085722;28;20554;-80
2022/12/23 02:38:59;;;;;;;1.87;0.90;;;8.90;99.90;;;9.44;100.00;97270.41;5092457;28;20519;-81
2022/12/23 02:41:41;;;;;;;1.07;0.97;;;9.00;99.90;;;9.43;100.00;97267.00;5094252;28;21049;-81
2022/12/23 02:44:23;;;;;;;2.90;0.80;;;9.00;99.90;;;9.44;100.00;97265.19;5093854;28;20544;-81
2022/12/23 02:47:02;;;;;;;1.30;0.90;;;8.90;99.90;;;9.44;100.00;97265.97;5095069;28;20467;-80
2022/12/23 02:49:39;;;;;;;1.23;0.97;;;9.00;99.90;;;9.44;100.00;97273.81;5095730;28;20489;-81
2022/12/23 02:52:14;;;;;;;5.50;0.97;;;9.00;99.90;;;9.47;100.00;97275.22;5089459;28;20463;-81
2022/12/23 02:54:51;;;;;;;2.93;0.80;;;9.00;99.90;;;9.47;100.00;97276.03;5093250;28;20576;-80
2022/12/23 02:57:32;;;;;;;5.03;0.70;;;9.10;99.90;;;9.47;100.00;97283.88;5094271;28;21008;-80
2022/12/23 03:00:03;;;;;;;8.50;0.87;;;9.00;99.90;;;9.48;100.00;97276.81;5095160;28;20507;-80
2022/12/23 03:02:36;;;;;;;4.70;0.93;;;9.10;99.90;;;9.47;100.00;97291.69;5093373;28;20459;-80
2022/12/23 03:05:22;;;;;;;3.03;0.80;;;9.10;99.90;;;9.48;100.00;97295.91;5092715;28;20525;-80
2022/12/23 03:08:01;;;;;;;1.23;0.67;;;9.10;99.90;;;9.47;100.00;97286.47;5091114;28;20494;-80
2022/12/23 03:10:55;;;;;;;6.33;1.10;;;9.10;99.90;;;9.46;100.00;97289.28;5086297;28;20497;-81
2022/12/23 03:13:50;;;;;;;0.77;0.77;;;9.00;99.90;;;9.46;100.00;97292.69;5088087;28;20504;-81
2022/12/23 03:16:28;;;;;;;1.10;0.77;;;8.90;99.90;;;9.44;100.00;97294.69;5087476;28;20479;-81
2022/12/23 03:19:14;;;;;;;1.97;0.70;;;8.90;99.90;;;9.45;100.00;97287.66;5087407;28;20458;-80
2022/12/23 03:21:53;;;;;;;1.37;0.60;;;8.90;99.90;;;9.45;100.00;97287.66;5089340;28;20524;-80
2022/12/23 03:24:36;;;;;;;0.70;0.70;;;8.90;99.90;;;9.44;100.00;97286.06;5097333;28;20487;-80
2022/12/23 03:27:15;;;;;;;3.37;0.90;;;8.90;99.90;;;9.46;100.00;97284.88;5094145;28;20491;-80
2022/12/23 03:29:57;;;;;;;0.77;0.67;;;9.00;99.90;;;9.45;100.00;97278.03;5093495;28;20465;-80
2022/12/23 03:32:33;;;;;;;0.67;0.67;;;9.00;99.90;;;9.44;100.00;97291.28;5091836;28;20513;-81
2022/12/23 03:35:10;;;;;;;2.20;0.93;;;9.00;99.90;;;9.42;100.00;97293.28;5091107;28;20496;-81
2022/12/23 03:37:46;;;;;;;4.33;0.73;;;8.90;99.90;;;9.43;100.00;97293.09;5089191;28;20487;-80
2022/12/23 03:40:23;;;;;;;1.67;0.90;;;8.90;99.90;;;9.41;100.00;97294.28;5087764;28;20547;-80
2022/12/23 03:43:00;;;;;;;10.00;0.90;;;8.80;99.90;;;9.37;100.00;97293.84;5092258;28;20961;-81
2022/12/23 03:45:37;;;;;;;0.80;0.80;;;8.80;99.90;;;9.38;100.00;97297.28;5090234;28;20511;-81
2022/12/23 03:48:19;;;;;;;1.63;0.80;;;8.80;99.90;;;9.37;100.00;97299.06;5093805;28;21081;-80
2022/12/23 03:50:59;;;;;;;1.17;0.90;;;8.80;99.90;;;9.37;100.00;97296.47;5091665;28;20800;-81
2022/12/23 03:53:35;;;;;;;3.50;1.13;;;8.80;99.90;;;9.38;100.00;97290.25;5089509;28;21010;-80
2022/12/23 03:56:10;;;;;;;0.77;0.77;;;8.80;99.90;;;9.38;100.00;97287.66;5093304;28;20485;-80
2022/12/23 03:58:48;;;;;;;1.97;0.80;;;8.80;99.90;;;9.40;100.00;97300.50;5094224;28;20455;-81
2022/12/23 04:01:31;;;;;;;0.80;0.80;;;8.80;99.90;;;9.40;100.00;97301.31;5096451;28;20485;-80
2022/12/23 04:04:09;;;;;;;0.87;0.80;;;8.90;99.90;;;9.41;100.00;97304.72;5089698;28;20988;-80
2022/12/23 04:06:49;;;;;;;1.80;0.83;;;8.80;99.90;;;9.37;100.00;97313.97;5095465;28;21020;-80
2022/12/23 04:09:22;;;;;;;0.70;0.70;;;8.80;99.90;;;9.38;100.00;97316.34;5097019;28;20467;-81
2022/12/23 04:11:54;;;;;;;3.37;1.17;;;8.80;99.90;;;9.40;100.00;97316.16;5089192;28;20475;-76
2022/12/23 04:14:24;;;;;;;2.63;2.23;;;8.80;99.90;;;9.38;100.00;97313.75;5092017;28;20557;-81
2022/12/23 04:16:58;;;;;;;2.47;1.70;;;8.80;99.90;;;9.40;100.00;97319.59;5088752;28;20512;-80
2022/12/23 04:19:27;;;;;;;2.97;1.23;;;8.90;99.90;;;9.38;100.00;97320.75;5094168;28;20455;-81
2022/12/23 04:21:59;;;;;;;3.27;0.80;;;8.80;99.90;;;9.38;100.00;97323.38;5089885;28;20506;-81
2022/12/23 04:24:29;;;;;;;6.23;1.77;;;8.80;99.90;;;9.40;100.00;97319.59;5089914;28;20496;-82
2022/12/23 04:26:59;;;;;;;0.80;0.80;;;8.80;99.90;;;9.39;100.00;97320.56;5092764;28;20459;-80
2022/12/23 04:29:29;;;;;;;2.30;1.00;;;8.80;99.90;;;9.40;100.00;97316.97;5088497;28;21156;-80
2022/12/23 04:31:59;;;;;;;3.50;1.13;;;8.90;99.90;;;9.38;100.00;97324.19;5092321;28;20455;-81
2022/12/23 04:34:30;;;;;;;1.07;0.90;;;8.80;99.90;;;9.40;100.00;97313.56;5097364;28;20852;-79
2022/12/23 04:37:01;;;;;;;1.47;0.80;;;8.80;99.90;;;9.40;100.00;97316.16;5096022;28;20961;-81
2022/12/23 04:39:30;;;;;;;2.37;1.00;;;8.80;99.90;;;9.42;100.00;97324.59;5092306;28;20466;-80
2022/12/23 04:42:02;;;;;;;0.60;0.60;;;8.90;99.90;;;9.43;100.00;97316.56;5095375;28;20492;-80
2022/12/23 04:44:32;;;;;;;5.27;0.90;;;8.90;99.90;;;9.42;100.00;97307.13;5088055;28;20536;-80
2022/12/23 04:47:02;;;;;;;0.80;0.77;;;8.80;99.90;;;9.43;100.00;97305.31;5093475;28;20462;-80
2022/12/23 04:49:31;;;;;;;0.80;0.80;;;8.80;99.90;;;9.41;100.00;97302.91;5092159;28;20478;-80
2022/12/23 04:52:04;;;;;;;0.90;0.70;;;8.80;99.90;;;9.41;100.00;97299.50;5097832;28;20470;-81
2022/12/23 04:54:34;;;;;;;0.80;0.80;;;8.80;99.90;;;9.37;100.00;97299.06;5092042;28;20463;-77
2022/12/23 04:57:08;;;;;;;1.30;0.90;;;8.70;99.90;;;9.38;100.00;97292.88;5088922;28;20451;-81
2022/12/23 04:59:37;;;;;;;8.53;1.30;;;8.70;99.90;;;9.37;100.00;97304.28;5087025;28;20493;-80
2022/12/23 05:02:09;;;;;;;1.77;0.80;;;8.70;99.90;;;9.41;100.00;97305.50;5089982;28;20455;-80
2022/12/23 05:04:39;;;;;;;3.10;1.00;;;8.90;99.90;;;9.40;100.00;97308.34;5095123;28;20478;-80
2022/12/23 05:07:09;;;;;;;4.17;0.90;;;8.90;99.90;;;9.40;100.00;97306.53;5091002;28;20472;-76
2022/12/23 05:09:39;;;;;;;5.23;1.97;;;8.90;99.90;;;9.39;100.00;97315.34;5090891;28;20451;-81
2022/12/23 05:12:10;;;;;;;2.20;1.50;;;8.80;99.90;;;9.38;100.00;97321.56;5091638;28;20471;-80
2022/12/23 05:14:39;;;;;;;1.57;0.87;;;8.70;99.90;;;9.37;100.00;97309.50;5094463;28;20463;-80
2022/12/23 05:17:09;;;;;;;1.43;0.90;;;8.80;99.90;;;9.37;100.00;97312.13;5092166;28;20968;-80
2022/12/23 05:19:38;;;;;;;3.43;0.90;;;8.70;99.90;;;9.36;100.00;97318.38;5088321;28;20499;-79
2022/12/23 05:22:08;;;;;;;1.73;0.97;;;8.80;99.90;;;9.38;100.00;97318.97;5087774;28;20551;-80
2022/12/23 05:24:39;;;;;;;15.93;7.20;;;8.80;99.90;;;9.39;100.00;97317.16;5087871;28;20515;-81
2022/12/23 05:27:09;;;;;;;2.50;1.43;;;8.80;99.90;;;9.37;100.00;97319.94;5091452;28;20966;-80
2022/12/23 05:29:38;;;;;;;2.40;1.10;;;8.80;99.90;;;9.39;100.00;97317.97;5090258;28;20463;-80
2022/12/23 05:32:07;;;;;;;1.40;1.00;;;8.90;99.90;;;9.38;100.00;97313.75;5090168;28;20884;-81
2022/12/23 05:34:37;;;;;;;1.00;0.90;;;9.00;99.90;;;9.38;100.00;97318.97;5094893;28;20455;-79
2022/12/23 05:37:07;;;;;;;32.30;12.63;;;8.90;99.90;;;9.39;100.00;97307.53;5094292;28;21024;-81
2022/12/23 05:39:40;;;;;;;4.83;1.60;;;8.90;99.90;;;9.38;100.00;97311.13;5092450;28;20505;-80
2022/12/23 05:42:10;;;;;;;2.07;1.13;;;8.80;99.90;;;9.37;100.00;97313.97;5092148;28;20463;-79
2022/12/23 05:44:39;;;;;;;2.90;1.40;;;8.80;99.90;;;9.34;100.00;97319.53;5091246;28;20459;-79
2022/12/23 05:47:09;;;;;;;6.83;0.90;;;8.80;99.90;;;9.35;100.00;97313.34;5090647;28;20549;-79
2022/12/23 05:49:39;;;;;;;6.40;1.20;;;8.70;99.90;;;9.34;100.00;97307.31;5092871;28;20894;-79
2022/12/23 05:52:09;;;;;;;5.40;0.87;;;8.70;99.90;;;9.33;100.00;97312.72;5093203;28;20561;-79
2022/12/23 05:54:40;;;;;;;1.13;1.03;;;8.70;99.90;;;9.32;100.00;97304.09;5092701;28;20443;-79
2022/12/23 05:57:11;;;;;;;1.47;1.10;;;8.70;99.90;;;9.32;100.00;97309.31;5091146;28;20957;-79
2022/12/23 05:59:40;;;;;;;4.73;1.03;;;8.80;99.90;;;9.29;100.00;97317.53;5093862;28;20949;-79
2022/12/23 06:02:10;;;;;;;1.20;1.10;;;8.70;99.90;;;9.27;100.00;97322.13;5089970;28;20450;-79
2022/12/23 06:04:40;;;;;;;1.30;1.07;;;8.70;99.90;;;9.27;100.00;97336.97;5091499;28;20467;-79
2022/12/23 06:07:10;;;;;;;3.73;0.90;;;8.70;99.90;;;9.23;100.00;97338.41;5090186;28;21205;-79
2022/12/23 06:09:41;;;;;;;2.53;0.80;;;8.60;99.90;;;9.29;100.00;97348.84;5091693;28;20458;-79
2022/12/23 06:12:11;;;;;;;11.30;1.10;;;8.70;99.90;;;9.32;100.00;97345.84;5088751;28;20459;-79
2022/12/23 06:14:41;;;;;;;1.40;0.90;;;8.80;99.90;;;9.33;100.00;97344.03;5092304;28;20464;-79
2022/12/23 06:17:10;;;;;;;1.83;0.80;;;8.90;99.90;;;9.35;100.00;97340.22;5093456;28;20823;-79
2022/12/23 06:19:41;;;;;;;0.73;0.70;;;8.80;99.90;;;9.36;100.00;97344.47;5090792;28;20473;-79
2022/12/23 06:22:11;;;;;;;0.90;0.60;;;8.90;99.90;;;9.36;100.00;97352.28;5092023;28;20547;-79
2022/12/23 06:24:44;;;;;;;0.70;0.70;;;8.90;99.90;;;9.39;100.00;97357.09;5093538;28;20461;-79
2022/12/23 06:27:14;;;;;;;2.30;0.80;;;8.90;99.90;;;9.39;100.00;97354.50;5093885;28;20458;-79
2022/12/23 06:29:44;;;;;;;3.77;1.00;;;8.90;99.90;;;9.36;100.00;97365.31;5091538;28;20464;-79
2022/12/23 06:32:14;;;;;;;1.77;0.90;;;8.80;99.90;;;9.35;100.00;97361.09;5092989;28;20462;-79
2022/12/23 06:34:45;;;;;;;1.10;0.83;;;8.80;99.90;;;9.30;100.00;97360.88;5094583;28;20495;-79
2022/12/23 06:37:16;;;;;;;17.17;0.93;;;8.70;99.90;;;9.27;100.00;97368.28;5091889;28;20877;-80
2022/12/23 06:39:46;;;;;;;1.50;0.90;;;8.70;99.90;;;9.26;100.00;97375.34;5089898;28;20466;-79
2022/12/23 06:42:17;;;;;;;0.90;0.90;;;8.70;99.90;;;9.27;100.00;97363.06;5088824;28;20477;-79
2022/12/23 06:44:46;;;;;;;3.83;0.93;;;8.70;99.90;;;9.25;100.00;97367.69;5094443;28;20861;-79
2022/12/23 06:47:16;;;;;;;1.30;0.90;;;8.70;99.90;;;9.27;100.00;97358.66;5089199;28;20487;-79
2022/12/23 06:49:47;;;;;;;0.80;0.80;;;8.80;99.90;;;9.23;100.00;97346.22;5094653;28;21000;-79
2022/12/23 06:52:17;;;;;;;0.90;0.87;;;8.70;99.90;;;9.21;100.00;97335.97;5092112;28;21349;-79
2022/12/23 06:54:49;;;;;;;1.20;1.10;;;8.70;99.90;;;9.17;100.00;97339.97;5091923;28;20933;-79
2022/12/23 06:57:18;;;;;;;14.93;1.00;;;8.60;99.90;;;9.15;100.00;97328.94;5089693;28;21169;-79
2022/12/23 06:59:47;;;;;;;0.97;0.90;;;8.60;99.90;;;9.11;100.00;97327.72;5093078;28;20550;-79
2022/12/23 07:02:17;;;;;;;1.33;0.80;;;8.60;99.90;;;9.08;100.00;97318.47;5092086;28;20891;-80
2022/12/23 07:04:48;;;;;;;1.00;0.90;;;8.60;99.90;;;9.01;100.00;97322.06;5094377;28;20537;-79
2022/12/23 07:07:19;;;;;;;1.10;1.00;;;8.40;99.90;;;8.95;100.00;97328.06;5092326;28;20507;-79
2022/12/23 07:09:50;;;;;;;1.00;0.90;;;8.30;99.90;;;8.91;100.00;97312.00;5092711;28;20459;-79
2022/12/23 07:12:20;;;;;;;4.20;0.90;;;8.40;99.90;;;8.94;100.00;97314.22;5091544;28;20537;-80
2022/12/23 07:14:49;;;;;;;1.00;0.90;;;8.40;99.90;;;8.90;100.00;97335.66;5090467;28;21032;-79
2022/12/23 07:17:19;;;;;;;2.80;1.07;;;8.30;99.90;;;8.84;100.00;97352.06;5093247;28;20541;-79
2022/12/23 07:19:49;;;;;;;5.17;1.40;;;8.30;99.90;;;8.81;100.00;97363.69;5089695;28;20491;-79
2022/12/23 07:22:18;;;;;;;1.20;1.03;;;8.20;99.90;;;8.75;100.00;97355.81;5088930;28;20481;-79
2022/12/23 07:24:49;;;;;;;1.53;1.20;;;8.10;99.90;;;8.72;100.00;97356.19;5089339;28;21490;-79
2022/12/23 07:27:19;;;;;;;1.30;1.17;;;8.00;99.90;;;8.71;100.00;97368.41;5090186;28;20495;-79
2022/12/23 07:29:50;;;;;;;4.23;1.00;;;8.20;99.90;;;8.70;100.00;97366.03;5086680;28;20458;-79
2022/12/23 07:32:20;;;;;;;1.23;0.93;;;8.10;99.90;;;8.65;100.00;97376.19;5086376;28;20534;-79
2022/12/23 07:34:50;;;;;;;1.60;1.17;;;8.00;99.90;;;8.66;100.00;97373.41;5088477;28;20578;-78
2022/12/23 07:37:21;;;;;;;2.30;1.40;;;8.00;99.90;;;8.62;100.00;97366.97;5093745;28;20531;-78
2022/12/23 07:39:52;;;;;;;1.30;1.17;;;7.90;99.90;;;8.57;100.00;97374.56;5090140;28;20455;-78
2022/12/23 07:42:21;;;;;;;2.43;1.20;;;8.00;99.90;;;8.57;100.00;97370.13;5090894;28;20471;-79
2022/12/23 07:45:13;;;;;;;1.20;1.10;;;7.90;99.90;;;8.55;100.00;97366.94;5090185;28;20579;-78
2022/12/23 07:47:43;;;;;;;1.43;1.10;;;7.90;99.90;;;8.57;100.00;97357.13;5089167;28;20495;-79
2022/12/23 07:50:13;;;;;;;0.90;0.90;;;7.90;99.90;;;8.56;100.00;97360.75;5091250;28;20464;-78
2022/12/23 07:52:44;;;;;;;4.43;0.93;;;7.90;99.90;;;8.58;100.00;97358.72;5088150;28;20506;-78
2022/12/23 07:55:15;;;;;;;1.27;0.90;;;7.90;99.90;;;8.62;100.00;97359.16;5095524;28;20466;-78
2022/12/23 07:57:49;;;;;;;3.93;1.00;;;8.00;99.90;;;8.57;100.00;97348.53;5090512;28;20475;-78
2022/12/23 08:00:19;;;;;;;2.13;1.17;;;8.00;99.90;;;8.56;100.00;97350.31;5088635;28;20463;-79
2022/12/23 08:02:49;;;;;;;0.97;0.90;;;8.00;99.90;;;8.56;100.00;97345.09;5090725;28;20462;-79
2022/12/23 08:05:20;;;;;;;1.40;1.20;;;8.00;99.90;;;8.55;100.00;97348.69;5090636;28;20467;-79
2022/12/23 08:07:51;;;;;;;3.53;1.00;;;7.90;99.90;;;8.55;100.00;97346.09;5095758;28;20493;-78
2022/12/23 08:10:22;;;;;;;2.50;1.27;;;7.90;99.90;;;8.59;100.00;97355.13;5093919;28;20470;-78
2022/12/23 08:12:52;;;;;;;3.93;1.30;;;7.90;99.90;;;8.61;100.00;97352.31;5093620;28;21089;-78
2022/12/23 08:15:21;;;;;;;1.30;1.20;;;7.90;99.90;;;8.63;100.00;97344.34;5092983;28;20462;-78
2022/12/23 08:17:51;;;;;;;3.20;1.40;;;8.00;99.90;;;8.64;100.00;97343.34;5093288;28;20559;-78
2022/12/23 08:20:21;;;;;;;1.67;1.00;;;8.00;99.90;;;8.66;100.00;97351.75;5090277;28;20468;-79
2022/12/23 08:22:50;;;;;;;1.77;1.33;;;8.00;99.90;;;8.69;100.00;97349.56;5091463;28;20467;-78
2022/12/23 08:25:23;;;;;;;6.03;1.27;;;8.20;99.90;;;8.72;100.00;97353.59;5094216;28;20538;-79
2022/12/23 08:27:53;;;;;;;5.47;1.23;;;8.20;99.90;;;8.75;100.00;97348.00;5089467;28;20880;-78
2022/12/23 08:30:23;;;;;;;2.70;1.50;;;8.20;99.90;;;8.75;100.00;97348.78;5093811;28;20451;-79
2022/12/23 08:32:53;;;;;;;14.23;1.10;;;8.20;99.90;;;8.77;100.00;97346.00;5090158;28;20461;-78
2022/12/23 08:35:23;;;;;;;1.40;1.30;;;8.20;99.90;;;8.77;100.00;97351.22;5090787;28;20542;-79
2022/12/23 08:37:53;;;;;;;2.60;1.43;;;8.20;99.90;;;8.81;100.00;97357.66;5093235;28;20495;-79
2022/12/23 08:40:24;;;;;;;5.07;1.87;;;8.20;99.90;;;8.82;100.00;97364.47;5093084;28;20542;-78
2022/12/23 08:42:53;;;;;;;1.80;1.20;;;8.20;99.90;;;8.84;100.00;97355.47;5091764;28;20565;-81
2022/12/23 08:45:21;;;;;;;1.60;1.50;;;8.20;99.90;;;8.85;100.00;97354.47;5093622;28;20974;-78
2022/12/23 08:47:51;;;;;;;2.37;2.07;;;8.20;99.90;;;8.87;100.00;97356.88;5094436;28;20500;-79
2022/12/23 08:50:21;;;;;;;2.10;1.50;;;8.20;99.90;;;8.89;100.00;97360.09;5094755;28;20477;-78
2022/12/23 08:52:50;;;;;;;1.50;1.30;;;8.30;99.90;;;8.90;100.00;97364.31;5092371;28;21072;-78
2022/12/23 08:55:20;;;;;;;2.00;1.80;;;8.30;99.90;;;8.93;100.00;97356.13;5095519;28;20483;-78
2022/12/23 08:57:52;;;;;;;2.07;1.80;;;8.40;99.90;;;8.95;100.00;97348.91;5092020;28;20837;-78
2022/12/23 09:00:22;;;;;;;2.10;1.70;;;8.40;99.90;;;8.96;100.00;97353.13;5094933;28;20464;-78
2022/12/23 09:02:52;;;;;;;1.40;1.30;;;8.40;99.90;;;8.97;100.00;97357.34;5094075;28;20536;-78
2022/12/23 09:05:22;;;;;;;1.33;1.23;;;8.40;99.90;;;8.99;100.00;97360.53;5090145;28;20508;-79
2022/12/23 09:07:53;;;;;;;2.33;1.60;;;8.30;99.90;;;8.97;100.00;97358.16;5097332;28;20588;-78
2022/12/23 09:10:23;;;;;;;3.37;2.43;;;8.30;99.90;;;9.01;100.00;97353.34;5092140;28;20539;-79
2022/12/23 09:12:54;;;;;;;1.60;1.40;;;8.40;99.90;;;9.01;100.00;97350.75;5093066;28;20467;-78
2022/12/23 09:15:26;;;;;;;4.30;1.63;;;8.40;99.90;;;9.04;100.00;97356.38;5092340;28;20466;-78
2022/12/23 09:17:56;;;;;;;4.27;1.60;;;8.40;99.90;;;9.06;100.00;97345.72;5093294;28;20472;-79
2022/12/23 09:20:26;;;;;;;3.00;1.80;;;8.50;99.90;;;9.09;100.00;97353.19;5091583;28;20467;-78
2022/12/23 09:22:57;;;;;;;3.50;1.70;;;8.40;99.90;;;9.12;100.00;97346.78;5091977;28;20503;-78
2022/12/23 09:25:26;;;;;;;2.50;1.93;;;8.50;99.90;;;9.13;100.00;97351.00;5092258;28;20464;-81
2022/12/23 09:27:56;;;;;;;2.60;1.50;;;8.50;99.90;;;9.15;100.00;97352.41;5092081;28;21133;-78
2022/12/23 09:30:25;;;;;;;2.47;2.10;;;8.50;99.90;;;9.16;100.00;97356.63;5093181;28;20539;-78
2022/12/23 09:32:55;;;;;;;4.87;2.47;;;8.50;99.90;;;9.19;100.00;97350.22;5093842;28;20854;-79
2022/12/23 09:35:24;;;;;;;5.67;2.43;;;8.60;99.90;;;9.20;100.00;97350.00;5092957;28;20545;-78
2022/12/23 09:37:54;;;;;;;3.27;2.40;;;8.60;99.90;;;9.24;100.00;97346.00;5095667;28;20520;-79
2022/12/23 09:40:24;;;;;;;2.97;2.73;;;8.60;99.90;;;9.26;100.00;97336.19;5092612;28;20500;-79
2022/12/23 09:43:12;;;;;;;4.10;3.47;;;8.60;99.90;;;9.27;100.00;97329.97;5091202;28;21047;-78
2022/12/23 09:45:58;;;;;;;3.03;2.73;;;8.70;99.90;;;9.28;100.00;97328.97;5091393;28;20459;-78
2022/12/23 09:48:41;;;;;;;3.53;2.87;;;8.70;99.90;;;9.30;100.00;97324.34;5087608;28;20499;-79
2022/12/23 09:51:12;;;;;;;9.20;2.93;;;8.70;99.90;;;9.32;100.00;97319.75;5090471;28;20504;-78
2022/12/23 09:53:56;;;;;;;3.47;3.00;;;8.70;99.90;;;9.35;100.00;97332.41;5095124;28;20458;-79
2022/12/23 09:56:40;;;;;;;4.67;2.60;;;8.80;99.90;;;9.36;100.00;97320.97;5095427;28;20519;-79
2022/12/23 09:59:40;;;;;;;3.03;2.80;;;8.80;99.90;;;9.38;100.00;97316.34;5092500;28;20487;-78
2022/12/23 10:02:26;;;;;;;3.07;2.67;;;8.80;99.90;;;9.37;100.00;97314.72;5091766;28;20463;-78
2022/12/23 10:05:05;;;;;;;5.40;3.27;;;8.80;99.90;;;9.40;100.00;97330.03;5094108;28;20959;-79
2022/12/23 10:07:40;;;;;;;4.60;3.37;;;8.80;99.90;;;9.43;100.00;97315.75;5094659;28;20477;-78
2022/12/23 10:10:25;;;;;;;7.57;3.07;;;8.90;99.90;;;9.46;100.00;97317.97;5091220;28;20462;-78
2022/12/23 10:12:57;;;;;;;5.10;3.03;;;8.90;99.90;;;9.46;100.00;97313.56;5090637;28;20455;-79
2022/12/23 10:15:34;;;;;;;3.00;2.80;;;8.90;99.90;;;9.46;100.00;97310.97;5090591;28;20451;-78
2022/12/23 10:18:15;;;;;;;8.10;3.13;;;8.90;99.90;;;9.47;100.00;97302.13;5091721;28;20474;-77
2022/12/23 10:20:51;;;;;;;5.70;3.23;;;8.90;99.90;;;9.49;100.00;97292.28;5090896;28;20469;-79
2022/12/23 10:23:32;;;;;;;3.83;3.03;;;8.90;99.90;;;9.50;100.00;97288.69;5088464;28;20459;-78
2022/12/23 10:26:09;;;;;;;4.53;3.23;;;8.90;99.90;;;9.51;100.00;97281.66;5092157;28;20472;-78
2022/12/23 10:28:38;;;;;;;4.33;2.97;;;8.90;99.90;;;9.54;100.00;97283.88;5091369;28;20490;-78
2022/12/23 10:31:20;;;;;;;6.93;3.07;;;8.90;99.90;;;9.55;100.00;97278.44;5089912;28;20591;-79
2022/12/23 10:34:19;;;;;;;4.70;3.10;;;8.90;99.90;;;9.59;100.00;97268.41;5090999;28;21218;-78
2022/12/23 10:37:01;;;;;;;6.93;3.90;;;9.00;99.90;;;9.61;100.00;97253.38;5090205;28;20450;-78
2022/12/23 10:39:43;;;;;;;5.07;3.00;;;9.00;99.90;;;9.63;100.00;97251.34;5089321;28;20875;-78
2022/12/23 10:42:27;;;;;;;5.70;3.10;;;9.00;99.90;;;9.66;100.00;97250.13;5087816;28;20472;-78
2022/12/23 10:45:35;;;;;;;3.40;2.97;;;9.10;99.90;;;9.68;100.00;97248.94;5092725;28;20493;-78
2022/12/23 10:48:26;;;;;;;6.20;3.50;;;9.10;99.90;;;9.70;100.00;97240.91;5092745;28;21042;-77
2022/12/23 10:51:02;;;;;;;4.70;3.60;;;9.10;99.90;;;9.72;100.00;97229.25;5092325;28;20455;-78
2022/12/23 10:53:40;;;;;;;6.20;3.80;;;9.10;99.90;;;9.74;100.00;97226.44;5088404;28;20865;-78
2022/12/23 10:56:11;;;;;;;8.87;3.70;;;9.20;99.90;;;9.77;100.00;97220.81;5089204;28;20948;-78
2022/12/23 10:58:46;;;;;;;7.60;3.90;;;9.20;99.90;;;9.78;100.00;97206.78;5090405;28;20531;-78
2022/12/23 11:01:19;;;;;;;9.23;4.37;;;9.20;99.90;;;9.79;100.00;97197.94;5090164;28;20467;-78
2022/12/23 11:04:07;;;;;;;3.73;2.77;;;9.20;99.90;;;9.85;100.00;97218.00;5088464;28;20949;-78
2022/12/23 11:06:43;;;;;;;3.83;2.90;;;9.30;99.90;;;9.90;100.00;97215.56;5090901;28;20457;-78
2022/12/23 11:09:19;;;;;;;9.03;2.93;;;9.40;99.90;;;9.91;100.00;97210.16;5089678;28;21017;-78
2022/12/23 11:12:02;;;;;;;6.70;3.47;;;9.40;99.90;;;9.93;100.00;97197.69;5088305;28;20517;-78
2022/12/23 11:14:35;;;;;;;3.60;2.63;;;9.40;99.90;;;9.96;100.00;97186.06;5091649;28;20825;-78
2022/12/23 11:17:18;;;;;;;6.00;3.70;;;9.40;99.90;;;9.98;100.00;97174.41;5088621;28;20479;-78
2022/12/23 11:20:07;;;;;;;7.40;3.67;;;9.40;99.90;;;10.02;100.00;97175.59;5088164;28;20463;-78
2022/12/23 11:22:47;;;;;;;4.37;3.70;;;9.50;99.90;;;10.05;100.00;97169.16;5087091;28;20546;-78